createdAt,value
2023-05-05T00:03:00.592Z,8.95
2023-05-05T00:07:02.547Z,8.77
2023-05-05T00:11:04.353Z,7.03
2023-05-05T00:15:07.556Z,6.38
2023-05-05T00:19:09.354Z,6.93
2023-05-05T00:23:11.182Z,5.82
2023-05-05T00:27:13.001Z,3.40
2023-05-05T00:31:18.206Z,3.40
2023-05-05T00:35:20.602Z,3.00
2023-05-05T00:39:22.356Z,2.15
2023-05-05T00:43:24.136Z,1.63
2023-05-05T00:47:25.936Z,1.77
2023-05-05T00:51:28.534Z,1.55
2023-05-05T00:55:31.083Z,0.82
2023-05-05T00:59:34.193Z,1.45
2023-05-05T01:03:38.404Z,1.40
2023-05-05T01:08:04.664Z,2.03
2023-05-05T01:12:24.391Z,1.25
2023-05-05T01:16:33.473Z,1.35
2023-05-05T01:21:07.633Z,1.23
2023-05-05T01:25:20.516Z,1.02
2023-05-05T01:30:02.290Z,1.52
2023-05-05T01:34:08.766Z,1.70
2023-05-05T01:38:21.893Z,1.30
2023-05-05T01:42:25.177Z,1.38
2023-05-05T01:46:28.540Z,1.58
2023-05-05T01:50:31.146Z,1.30
2023-05-05T01:54:34.904Z,1.10
2023-05-05T01:58:38.300Z,1.45
2023-05-05T02:02:42.090Z,1.38
2023-05-05T02:06:47.693Z,2.97
2023-05-05T02:10:50.743Z,1.63
2023-05-05T02:14:53.549Z,1.80
2023-05-05T02:18:56.357Z,1.52
2023-05-05T02:22:59.337Z,1.92
2023-05-05T02:27:03.901Z,1.55
2023-05-05T02:31:08.803Z,1.73
2023-05-05T02:35:23.301Z,1.63
2023-05-05T02:39:31.580Z,1.13
2023-05-05T02:43:41.099Z,1.70
2023-05-05T02:47:43.230Z,1.67
2023-05-05T02:51:45.358Z,1.98
2023-05-05T02:56:01.541Z,1.65
2023-05-05T03:00:31.570Z,1.70
2023-05-05T03:04:41.911Z,0.93
2023-05-05T03:09:06.502Z,1.95
2023-05-05T03:13:10.806Z,2.00
2023-05-05T03:17:18.980Z,2.20
2023-05-05T03:21:21.735Z,2.40
2023-05-05T03:25:47.967Z,2.28
2023-05-05T03:30:04.164Z,2.80
2023-05-05T03:34:08.716Z,2.70
2023-05-05T03:38:17.951Z,3.35
2023-05-05T03:42:21.152Z,2.85
2023-05-05T03:46:23.117Z,4.22
2023-05-05T03:50:25.145Z,3.80
2023-05-05T03:54:27.077Z,3.63
2023-05-05T03:58:28.919Z,4.13
2023-05-05T04:02:31.625Z,3.50
2023-05-05T04:06:33.573Z,4.43
2023-05-05T04:10:36.163Z,4.53
2023-05-05T04:14:38.270Z,5.00
2023-05-05T04:18:40.864Z,5.03
2023-05-05T04:22:43.007Z,5.93
2023-05-05T04:26:45.323Z,7.65
2023-05-05T04:30:47.747Z,8.65
2023-05-05T04:34:49.784Z,9.90
2023-05-05T04:38:52.013Z,10.73
2023-05-05T04:42:53.936Z,11.25
2023-05-05T04:46:56.711Z,13.68
2023-05-05T04:50:58.868Z,13.45
2023-05-05T04:55:01.535Z,13.40
2023-05-05T04:59:03.595Z,12.77
2023-05-05T05:03:05.801Z,13.00
2023-05-05T05:07:08.216Z,13.35
2023-05-05T05:11:10.110Z,14.43
2023-05-05T05:15:13.526Z,16.00
2023-05-05T05:19:15.443Z,14.45
2023-05-05T05:23:17.426Z,14.50
2023-05-05T05:27:20.158Z,16.73
2023-05-05T05:31:24.518Z,16.20
2023-05-05T05:35:26.844Z,15.27
2023-05-05T05:39:28.893Z,15.45
2023-05-05T05:43:30.957Z,14.63
2023-05-05T05:47:32.960Z,14.57
2023-05-05T05:51:35.483Z,12.90
2023-05-05T05:55:37.485Z,14.20
2023-05-05T05:59:39.489Z,12.32
2023-05-05T06:03:41.968Z,13.23
2023-05-05T06:07:43.973Z,12.73
2023-05-05T06:11:46.184Z,10.77
2023-05-05T06:15:48.188Z,12.13
2023-05-05T06:19:52.426Z,10.93
2023-05-05T06:23:56.367Z,10.23
2023-05-05T06:28:00.235Z,11.15
2023-05-05T06:32:02.232Z,10.63
2023-05-05T06:36:04.364Z,8.98
2023-05-05T06:40:08.091Z,9.43
2023-05-05T06:44:11.505Z,9.18
2023-05-05T06:48:13.436Z,9.48
2023-05-05T06:52:15.238Z,8.82
2023-05-05T06:56:17.365Z,9.27
2023-05-05T07:00:19.747Z,7.20
2023-05-05T07:04:21.842Z,8.48
2023-05-05T07:08:23.678Z,7.80
2023-05-05T07:12:25.524Z,7.75
2023-05-05T07:16:27.601Z,8.55
2023-05-05T07:20:29.552Z,9.95
2023-05-05T07:24:31.396Z,6.82
2023-05-05T07:28:35.144Z,7.82
2023-05-05T07:32:37.007Z,6.15
2023-05-05T07:36:38.936Z,4.70
2023-05-05T07:40:40.961Z,3.75
2023-05-05T07:44:42.876Z,3.83
2023-05-05T07:48:44.858Z,4.28
2023-05-05T07:52:51.855Z,4.03
2023-05-05T07:57:02.102Z,3.75
2023-05-05T08:01:06.604Z,4.53
2023-05-05T08:05:09.022Z,4.60
2023-05-05T08:09:12.018Z,4.97
2023-05-05T08:13:13.819Z,4.93
2023-05-05T08:17:18.248Z,5.22
2023-05-05T08:21:20.239Z,3.75
2023-05-05T08:25:22.164Z,2.70
2023-05-05T08:29:24.211Z,2.88
2023-05-05T08:33:26.420Z,2.42
2023-05-05T08:37:28.415Z,1.55
2023-05-05T08:41:30.292Z,2.17
2023-05-05T08:45:32.728Z,1.92
2023-05-05T08:49:43.851Z,1.67
2023-05-05T08:53:54.554Z,2.40
2023-05-05T08:57:58.224Z,1.80
2023-05-05T09:02:01.798Z,1.92
2023-05-05T09:06:04.370Z,1.50
2023-05-05T09:10:08.267Z,1.38
2023-05-05T09:14:10.356Z,1.27
2023-05-05T09:18:13.266Z,1.27
2023-05-05T09:22:15.276Z,0.80
2023-05-05T09:26:17.234Z,1.50
2023-05-05T09:30:25.127Z,1.08
2023-05-05T09:34:27.295Z,0.98
2023-05-05T09:38:29.070Z,1.17
2023-05-05T09:42:32.005Z,1.45
2023-05-05T09:46:34.377Z,1.30
2023-05-05T09:50:44.182Z,2.20
2023-05-05T09:54:53.564Z,2.03
2023-05-05T09:59:08.583Z,1.67
2023-05-05T10:03:10.472Z,1.02
2023-05-05T10:07:24.403Z,1.40
2023-05-05T10:11:26.248Z,1.60
2023-05-05T10:15:28.349Z,1.88
2023-05-05T10:19:35.226Z,1.63
2023-05-05T10:24:08.203Z,1.20
2023-05-05T10:28:16.776Z,1.60
2023-05-05T10:32:52.925Z,1.17
2023-05-05T10:36:51.613Z,1.50
2023-05-05T10:40:55.218Z,1.67
2023-05-05T10:44:57.075Z,1.40
2023-05-05T10:49:27.997Z,1.73
2023-05-05T10:53:36.087Z,1.63
2023-05-05T10:57:41.911Z,2.70
2023-05-05T11:01:43.791Z,1.83
2023-05-05T11:06:03.760Z,2.65
2023-05-05T11:10:11.010Z,2.42
2023-05-05T11:14:21.424Z,2.40
2023-05-05T11:18:40.422Z,2.75
2023-05-05T11:23:05.342Z,2.00
2023-05-05T11:27:07.380Z,2.45
2023-05-05T11:31:09.151Z,2.22
2023-05-05T11:35:11.548Z,2.08
2023-05-05T11:39:49.265Z,2.40
2023-05-05T11:43:51.133Z,2.22
2023-05-05T11:47:53.196Z,2.03
2023-05-05T11:52:02.678Z,2.38
2023-05-05T11:56:12.409Z,2.17
2023-05-05T12:00:14.814Z,2.13
2023-05-05T12:04:17.567Z,2.50
2023-05-05T12:08:19.656Z,2.42
2023-05-05T12:12:33.220Z,2.95
2023-05-05T12:16:35.321Z,3.38
2023-05-05T12:20:37.285Z,2.72
2023-05-05T12:24:39.161Z,3.13
2023-05-05T12:28:48.014Z,3.72
2023-05-05T12:32:49.941Z,3.22
2023-05-05T12:36:52.307Z,3.15
2023-05-05T12:40:55.966Z,2.85
2023-05-05T12:44:57.882Z,3.15
2023-05-05T12:49:07.166Z,3.03
2023-05-05T12:53:09.287Z,3.30
2023-05-05T12:57:11.649Z,3.08
2023-05-05T13:01:13.520Z,2.78
2023-05-05T13:05:15.393Z,3.30
2023-05-05T13:09:30.508Z,2.20
2023-05-05T13:13:32.625Z,2.55
2023-05-05T13:17:34.940Z,1.75
2023-05-05T13:21:36.966Z,1.70
2023-05-05T13:25:38.786Z,1.70
2023-05-05T13:29:41.848Z,1.63
2023-05-05T13:33:43.654Z,1.58
2023-05-05T13:37:46.859Z,1.00
2023-05-05T13:41:48.699Z,1.40
2023-05-05T13:45:50.669Z,1.05
2023-05-05T13:49:52.452Z,1.33
2023-05-05T13:53:54.370Z,1.17
2023-05-05T13:57:56.533Z,1.60
2023-05-05T14:01:59.129Z,0.95
2023-05-05T14:06:01.001Z,1.63
2023-05-05T14:10:02.844Z,1.13
2023-05-05T14:14:04.661Z,2.15
2023-05-05T14:18:06.885Z,1.38
2023-05-05T14:22:08.711Z,1.40
2023-05-05T14:26:10.574Z,1.98
2023-05-05T14:30:12.847Z,1.35
2023-05-05T14:34:14.788Z,1.20
2023-05-05T14:38:16.583Z,1.30
2023-05-05T14:42:18.368Z,1.33
2023-05-05T14:46:20.387Z,1.48
2023-05-05T14:50:22.379Z,2.33
2023-05-05T14:54:27.837Z,2.00
2023-05-05T14:58:31.215Z,2.40
2023-05-05T15:02:33.236Z,1.85
2023-05-05T15:06:35.867Z,2.78
2023-05-05T15:10:37.646Z,3.15
2023-05-05T15:14:40.103Z,3.05
2023-05-05T15:18:41.909Z,2.90
2023-05-05T15:22:43.697Z,3.67
2023-05-05T15:26:45.485Z,3.53
2023-05-05T15:30:47.290Z,3.95
2023-05-05T15:34:50.457Z,4.10
2023-05-05T15:38:52.554Z,4.82
2023-05-05T15:42:54.424Z,4.68
2023-05-05T15:46:56.321Z,3.90
2023-05-05T15:50:58.193Z,3.67
2023-05-05T15:55:00.661Z,3.40
2023-05-05T15:59:03.504Z,4.30
2023-05-05T16:03:05.376Z,4.57
2023-05-05T16:07:07.285Z,5.55
2023-05-05T16:11:09.197Z,4.07
2023-05-05T16:15:11.770Z,5.03
2023-05-05T16:19:13.711Z,4.72
2023-05-05T16:23:15.556Z,4.90
2023-05-05T16:27:17.736Z,5.38
2023-05-05T16:31:19.577Z,4.85
2023-05-05T16:35:23.077Z,4.60
2023-05-05T16:39:25.442Z,4.65
2023-05-05T16:43:27.347Z,4.90
2023-05-05T16:47:29.239Z,4.95
2023-05-05T16:51:31.258Z,4.15
2023-05-05T16:55:33.181Z,4.22
2023-05-05T16:59:35.176Z,4.43
2023-05-05T17:03:38.321Z,4.15
2023-05-05T17:07:40.288Z,4.40
2023-05-05T17:11:42.146Z,4.82
2023-05-05T17:15:44.506Z,5.03
2023-05-05T17:19:46.449Z,4.95
2023-05-05T17:23:48.433Z,5.05
2023-05-05T17:27:50.269Z,4.97
2023-05-05T17:31:52.216Z,5.90
2023-05-05T17:35:54.782Z,5.60
2023-05-05T17:39:56.571Z,6.35
2023-05-05T17:43:59.668Z,5.53
2023-05-05T17:48:01.555Z,6.53
2023-05-05T17:52:03.526Z,5.80
2023-05-05T17:56:07.282Z,6.00
2023-05-05T18:00:11.036Z,6.07
2023-05-05T18:04:16.095Z,6.43
2023-05-05T18:08:18.678Z,6.55
2023-05-05T18:12:20.653Z,5.82
2023-05-05T18:16:22.625Z,6.43
2023-05-05T18:20:24.554Z,6.68
2023-05-05T18:24:27.673Z,6.53
2023-05-05T18:28:29.539Z,5.60
2023-05-05T18:32:31.546Z,6.07
2023-05-05T18:36:33.445Z,5.95
2023-05-05T18:40:35.288Z,6.00
2023-05-05T18:44:37.181Z,5.97
2023-05-05T18:48:39.053Z,6.15
2023-05-05T18:52:40.949Z,6.15
2023-05-05T18:56:42.801Z,5.90
2023-05-05T19:00:44.679Z,5.28
2023-05-05T19:04:46.606Z,5.20
2023-05-05T19:08:48.493Z,5.20
2023-05-05T19:12:50.763Z,4.05
2023-05-05T19:16:53.068Z,4.47
2023-05-05T19:20:54.945Z,4.43
2023-05-05T19:24:56.830Z,4.95
2023-05-05T19:28:59.550Z,6.18
2023-05-05T19:33:01.471Z,5.32
2023-05-05T19:37:03.449Z,4.95
2023-05-05T19:41:05.433Z,5.10
2023-05-05T19:45:07.862Z,4.85
2023-05-05T19:49:09.802Z,4.60
2023-05-05T19:53:11.993Z,5.82
2023-05-05T19:57:13.864Z,5.18
2023-05-05T20:01:15.770Z,4.97
2023-05-05T20:05:17.908Z,5.18
2023-05-05T20:09:19.979Z,4.68
2023-05-05T20:13:21.932Z,4.68
2023-05-05T20:17:24.038Z,7.47
2023-05-05T20:21:25.873Z,4.80
2023-05-05T20:25:27.704Z,5.10
2023-05-05T20:29:29.632Z,5.03
2023-05-05T20:33:31.480Z,4.38
2023-05-05T20:37:33.356Z,5.13
2023-05-05T20:41:36.415Z,5.18
2023-05-05T20:45:41.479Z,5.20
2023-05-05T20:49:43.348Z,4.35
2023-05-05T20:53:45.192Z,4.05
2023-05-05T20:57:47.157Z,4.35
2023-05-05T21:01:49.112Z,4.40
2023-05-05T21:05:50.985Z,4.45
2023-05-05T21:09:52.790Z,4.47
2023-05-05T21:13:54.577Z,4.57
2023-05-05T21:17:57.348Z,4.80
2023-05-05T21:21:59.397Z,4.65
2023-05-05T21:26:02.482Z,6.00
2023-05-05T21:30:04.672Z,5.72
2023-05-05T21:34:06.474Z,5.45
2023-05-05T21:38:08.580Z,5.20
2023-05-05T21:42:10.562Z,5.07
2023-05-05T21:46:12.539Z,5.05
2023-05-05T21:50:14.387Z,5.30
2023-05-05T21:54:16.358Z,5.47
2023-05-05T21:58:18.239Z,5.25
2023-05-05T22:02:20.355Z,5.45
2023-05-05T22:06:22.545Z,5.43
2023-05-05T22:10:24.406Z,5.88
2023-05-05T22:14:26.459Z,6.03
2023-05-05T22:18:28.288Z,5.70
2023-05-05T22:22:30.112Z,6.25
2023-05-05T22:26:31.903Z,5.50
2023-05-05T22:30:34.272Z,5.97
2023-05-05T22:34:36.208Z,6.57
2023-05-05T22:38:38.015Z,6.00
2023-05-05T22:42:39.932Z,6.03
2023-05-05T22:46:42.336Z,6.10
2023-05-05T22:50:44.114Z,5.88
2023-05-05T22:54:45.988Z,6.72
2023-05-05T22:58:47.772Z,5.80
2023-05-05T23:02:49.679Z,6.35
2023-05-05T23:06:52.146Z,6.32
2023-05-05T23:10:54.077Z,6.05
2023-05-05T23:14:56.009Z,6.25
2023-05-05T23:18:57.826Z,6.38
2023-05-05T23:22:59.662Z,6.47
2023-05-05T23:27:04.605Z,6.93
2023-05-05T23:31:06.524Z,5.72
2023-05-05T23:35:09.250Z,6.72
2023-05-05T23:39:13.395Z,6.32
2023-05-05T23:43:15.207Z,7.10
2023-05-05T23:47:17.056Z,6.38
2023-05-05T23:51:18.912Z,6.65
2023-05-05T23:55:21.286Z,5.82
2023-05-05T23:59:23.128Z,6.18
